createdAt,value
2019-03-23T00:01:17.766Z,17.98
2019-03-23T00:03:46.362Z,19.07
2019-03-23T00:06:14.912Z,23.77
2019-03-23T00:08:43.504Z,17.52
2019-03-23T00:11:12.036Z,20.80
2019-03-23T00:13:40.574Z,23.75
2019-03-23T00:16:09.090Z,22.07
2019-03-23T00:18:37.568Z,20.20
2019-03-23T00:21:06.086Z,20.80
2019-03-23T00:23:34.567Z,23.12
2019-03-23T00:26:03.084Z,20.45
2019-03-23T00:28:31.625Z,22.90
2019-03-23T00:31:00.150Z,25.62
2019-03-23T00:33:28.697Z,17.57
2019-03-23T00:35:57.219Z,22.58
2019-03-23T00:38:25.771Z,21.62
2019-03-23T00:40:54.291Z,22.80
2019-03-23T00:43:22.824Z,19.98
2019-03-23T00:45:51.370Z,20.32
2019-03-23T00:48:19.823Z,20.72
2019-03-23T00:50:48.367Z,21.42
2019-03-23T00:53:16.894Z,21.68
2019-03-23T00:55:45.510Z,24.10
2019-03-23T00:58:13.962Z,23.52
2019-03-23T01:00:42.587Z,23.73
2019-03-23T01:03:11.138Z,21.02
2019-03-23T01:05:39.703Z,23.52
2019-03-23T01:08:08.203Z,23.15
2019-03-23T01:10:36.819Z,23.92
2019-03-23T01:13:05.418Z,22.25
2019-03-23T01:15:33.967Z,28.50
2019-03-23T01:18:02.495Z,28.62
2019-03-23T01:20:31.018Z,25.97
2019-03-23T01:22:59.566Z,21.75
2019-03-23T01:25:28.086Z,20.88
2019-03-23T01:27:56.555Z,23.62
2019-03-23T01:30:25.012Z,18.55
2019-03-23T01:32:53.555Z,16.32
2019-03-23T01:35:22.012Z,21.02
2019-03-23T01:37:50.551Z,21.52
2019-03-23T01:40:19.147Z,18.42
2019-03-23T01:42:47.677Z,22.95
2019-03-23T01:45:16.463Z,16.45
2019-03-23T01:47:45.358Z,16.95
2019-03-23T01:50:14.046Z,18.95
2019-03-23T01:52:42.643Z,21.65
2019-03-23T01:55:11.278Z,18.27
2019-03-23T01:57:39.808Z,24.15
2019-03-23T02:00:10.798Z,24.27
2019-03-23T02:02:39.254Z,29.45
2019-03-23T02:05:08.241Z,19.52
2019-03-23T02:07:36.766Z,19.00
2019-03-23T02:10:07.430Z,20.65
2019-03-23T02:12:35.975Z,27.77
2019-03-23T02:15:06.744Z,17.52
2019-03-23T02:17:35.286Z,20.72
2019-03-23T02:20:11.497Z,19.87
2019-03-23T02:22:40.295Z,22.58
2019-03-23T02:25:09.266Z,40.25
2019-03-23T02:27:37.817Z,25.15
2019-03-23T02:30:09.351Z,25.23
2019-03-23T02:32:37.896Z,23.57
2019-03-23T02:35:09.890Z,29.98
2019-03-23T02:37:38.587Z,23.70
2019-03-23T02:40:08.876Z,31.82
2019-03-23T02:42:37.401Z,30.90
2019-03-23T02:45:08.453Z,27.98
2019-03-23T02:47:36.980Z,31.23
2019-03-23T02:50:07.669Z,35.40
2019-03-23T02:52:36.564Z,21.45
2019-03-23T02:55:07.452Z,25.88
2019-03-23T02:57:36.152Z,25.65
2019-03-23T03:00:13.158Z,23.15
2019-03-23T03:02:41.674Z,23.27
2019-03-23T03:05:11.064Z,23.00
2019-03-23T03:07:42.698Z,28.40
2019-03-23T03:10:11.627Z,31.97
2019-03-23T03:12:40.155Z,30.00
2019-03-23T03:15:09.927Z,27.13
2019-03-23T03:17:38.607Z,28.80
2019-03-23T03:20:08.584Z,24.67
2019-03-23T03:22:37.126Z,27.55
2019-03-23T03:25:08.256Z,24.23
2019-03-23T03:27:36.863Z,24.52
2019-03-23T03:30:08.800Z,33.18
2019-03-23T03:32:37.348Z,23.87
2019-03-23T03:35:06.543Z,26.23
2019-03-23T03:37:35.039Z,25.97
2019-03-23T03:40:04.764Z,21.57
2019-03-23T03:42:33.297Z,26.62
2019-03-23T03:45:01.850Z,20.50
2019-03-23T03:47:30.383Z,20.27
2019-03-23T03:49:58.932Z,22.75
2019-03-23T03:52:27.482Z,22.48
2019-03-23T03:54:56.087Z,24.30
2019-03-23T03:57:24.618Z,21.97
2019-03-23T03:59:53.180Z,22.55
2019-03-23T04:02:21.707Z,21.30
2019-03-23T04:04:50.159Z,17.82
2019-03-23T04:07:18.779Z,23.87
2019-03-23T04:09:47.312Z,18.80
2019-03-23T04:12:15.865Z,25.12
2019-03-23T04:14:44.405Z,21.57
2019-03-23T04:17:13.026Z,22.67
2019-03-23T04:19:41.569Z,20.97
2019-03-23T04:22:10.115Z,21.20
2019-03-23T04:24:38.642Z,18.23
2019-03-23T04:27:07.200Z,21.70
2019-03-23T04:29:35.719Z,21.85
2019-03-23T04:32:04.339Z,23.65
2019-03-23T04:34:32.884Z,29.45
2019-03-23T04:37:01.436Z,21.87
2019-03-23T04:39:29.972Z,22.75
2019-03-23T04:41:58.514Z,22.52
2019-03-23T04:44:26.961Z,29.57
2019-03-23T04:46:55.447Z,26.68
2019-03-23T04:49:23.975Z,30.92
2019-03-23T04:51:52.459Z,30.97
2019-03-23T04:54:20.992Z,22.40
2019-03-23T04:56:49.538Z,29.77
2019-03-23T04:59:17.994Z,19.17
2019-03-23T05:01:46.543Z,20.32
2019-03-23T05:04:15.078Z,17.02
2019-03-23T05:06:43.622Z,20.77
2019-03-23T05:09:12.151Z,21.85
2019-03-23T05:11:40.707Z,20.27
2019-03-23T05:14:09.164Z,24.18
2019-03-23T05:16:37.715Z,20.70
2019-03-23T05:19:06.310Z,19.07
2019-03-23T05:21:34.782Z,18.02
2019-03-23T05:24:03.402Z,24.80
2019-03-23T05:26:32.005Z,23.35
2019-03-23T05:29:00.538Z,20.43
2019-03-23T05:31:29.069Z,21.37
2019-03-23T05:33:57.627Z,19.57
2019-03-23T05:36:26.155Z,25.82
2019-03-23T05:38:54.704Z,26.30
2019-03-23T05:41:23.240Z,26.55
2019-03-23T05:43:51.787Z,25.90
2019-03-23T05:46:20.243Z,22.00
2019-03-23T05:48:48.786Z,20.10
2019-03-23T05:51:17.239Z,21.82
2019-03-23T05:53:45.790Z,20.90
2019-03-23T05:56:14.315Z,21.27
2019-03-23T05:58:42.787Z,27.50
2019-03-23T06:01:11.318Z,18.42
2019-03-23T06:03:39.880Z,22.45
2019-03-23T06:06:08.407Z,22.75
2019-03-23T06:08:36.950Z,20.97
2019-03-23T06:11:05.547Z,17.75
2019-03-23T06:13:34.163Z,16.90
2019-03-23T06:16:02.687Z,18.10
2019-03-23T06:18:31.238Z,31.02
2019-03-23T06:20:59.754Z,18.65
2019-03-23T06:23:28.298Z,17.70
2019-03-23T06:25:56.752Z,17.15
2019-03-23T06:28:25.289Z,24.82
2019-03-23T06:30:53.746Z,14.10
2019-03-23T06:33:22.221Z,18.87
2019-03-23T06:35:50.759Z,20.65
2019-03-23T06:38:19.298Z,20.20
2019-03-23T06:40:47.806Z,12.50
2019-03-23T06:43:16.277Z,16.80
2019-03-23T06:45:44.731Z,17.70
2019-03-23T06:48:13.274Z,16.45
2019-03-23T06:50:41.805Z,14.23
2019-03-23T06:53:10.355Z,17.27
2019-03-23T06:55:38.886Z,21.68
2019-03-23T06:58:07.343Z,13.80
2019-03-23T07:00:35.890Z,18.37
2019-03-23T07:03:04.487Z,15.60
2019-03-23T07:05:33.039Z,17.40
2019-03-23T07:08:01.566Z,21.10
2019-03-23T07:10:30.115Z,17.30
2019-03-23T07:12:58.647Z,20.83
2019-03-23T07:15:27.286Z,13.23
2019-03-23T07:17:56.028Z,11.77
2019-03-23T07:20:24.561Z,15.50
2019-03-23T07:22:54.861Z,16.43
2019-03-23T07:25:23.303Z,13.23
2019-03-23T07:27:51.759Z,13.83
2019-03-23T07:30:20.236Z,14.80
2019-03-23T07:32:48.792Z,14.47
2019-03-23T07:35:18.059Z,15.37
2019-03-23T07:37:46.663Z,14.23
2019-03-23T07:40:15.663Z,16.07
2019-03-23T07:42:44.214Z,16.20
2019-03-23T07:45:14.438Z,15.03
2019-03-23T07:47:43.154Z,19.73
2019-03-23T07:50:13.522Z,13.17
2019-03-23T07:52:42.063Z,16.03
2019-03-23T07:55:15.520Z,10.70
2019-03-23T07:57:44.307Z,21.30
2019-03-23T08:00:17.962Z,21.10
2019-03-23T08:02:46.539Z,13.77
2019-03-23T08:05:15.171Z,13.93
2019-03-23T08:07:43.888Z,16.17
2019-03-23T08:10:27.163Z,13.33
2019-03-23T08:12:55.778Z,17.13
2019-03-23T08:15:24.320Z,13.00
2019-03-23T08:17:52.934Z,21.63
2019-03-23T08:20:21.459Z,23.63
2019-03-23T08:22:50.024Z,15.10
2019-03-23T08:25:18.547Z,17.43
2019-03-23T08:27:47.094Z,25.50
2019-03-23T08:30:15.554Z,14.13
2019-03-23T08:32:44.098Z,16.10
2019-03-23T08:35:12.765Z,13.73
2019-03-23T08:37:41.318Z,15.83
2019-03-23T08:40:09.989Z,17.23
2019-03-23T08:42:38.517Z,22.93
2019-03-23T08:45:07.600Z,14.83
2019-03-23T08:47:36.131Z,17.80
2019-03-23T08:50:06.415Z,14.20
2019-03-23T08:52:35.011Z,11.17
2019-03-23T08:55:03.926Z,19.77
2019-03-23T08:57:32.527Z,12.27
2019-03-23T09:00:01.074Z,11.30
2019-03-23T09:02:29.612Z,20.40
2019-03-23T09:04:58.160Z,15.00
2019-03-23T09:07:26.691Z,15.07
2019-03-23T09:09:59.400Z,15.53
2019-03-23T09:12:25.418Z,13.00
2019-03-23T09:14:53.870Z,21.07
2019-03-23T09:17:22.415Z,16.03
2019-03-23T09:19:50.867Z,16.07
2019-03-23T09:22:19.422Z,12.63
2019-03-23T09:24:47.944Z,10.97
2019-03-23T09:27:16.492Z,14.43
2019-03-23T09:29:45.025Z,17.67
2019-03-23T09:32:13.566Z,19.07
2019-03-23T09:34:42.095Z,21.23
2019-03-23T09:37:10.646Z,18.07
2019-03-23T09:39:39.177Z,18.20
2019-03-23T09:42:07.732Z,23.03
2019-03-23T09:44:36.254Z,17.67
2019-03-23T09:47:04.874Z,22.80
2019-03-23T09:49:33.334Z,25.10
2019-03-23T09:52:01.787Z,21.50
2019-03-23T09:54:30.342Z,21.00
2019-03-23T09:56:59.674Z,24.10
2019-03-23T09:59:28.231Z,21.40
2019-03-23T10:01:56.767Z,25.60
2019-03-23T10:04:25.319Z,24.10
2019-03-23T10:06:53.849Z,22.63
2019-03-23T10:09:22.404Z,21.17
2019-03-23T10:11:51.007Z,18.20
2019-03-23T10:14:19.548Z,17.80
2019-03-23T10:16:48.085Z,34.90
2019-03-23T10:19:17.065Z,20.90
2019-03-23T10:21:45.538Z,25.10
2019-03-23T10:24:14.071Z,17.83
2019-03-23T10:26:42.622Z,19.80
2019-03-23T10:29:11.159Z,19.20
2019-03-23T10:31:39.704Z,23.00
2019-03-23T10:34:08.234Z,31.00
2019-03-23T10:36:36.766Z,26.77
2019-03-23T10:39:06.162Z,20.40
2019-03-23T10:41:34.683Z,22.77
2019-03-23T10:44:03.235Z,21.00
2019-03-23T10:46:31.721Z,20.60
2019-03-23T10:49:00.239Z,25.27
2019-03-23T10:51:28.775Z,22.93
2019-03-23T10:53:57.242Z,23.57
2019-03-23T10:56:25.774Z,23.13
2019-03-23T10:58:54.250Z,21.90
2019-03-23T11:01:22.920Z,20.43
2019-03-23T11:03:51.478Z,22.00
2019-03-23T11:06:20.011Z,19.33
2019-03-23T11:08:48.559Z,24.40
2019-03-23T11:11:17.095Z,20.50
2019-03-23T11:13:45.642Z,27.47
2019-03-23T11:16:14.187Z,19.57
2019-03-23T11:18:42.730Z,21.13
2019-03-23T11:21:11.258Z,21.10
2019-03-23T11:23:39.811Z,21.83
2019-03-23T11:26:08.346Z,23.93
2019-03-23T11:28:36.803Z,20.50
2019-03-23T11:31:05.346Z,24.50
2019-03-23T11:33:33.874Z,25.90
2019-03-23T11:36:02.422Z,26.27
2019-03-23T11:38:30.954Z,42.87
2019-03-23T11:40:59.577Z,26.63
2019-03-23T11:43:28.124Z,28.10
2019-03-23T11:45:56.663Z,21.30
2019-03-23T11:48:25.210Z,21.57
2019-03-23T11:50:53.738Z,20.10
2019-03-23T11:53:22.286Z,31.23
2019-03-23T11:55:50.893Z,25.70
2019-03-23T11:58:19.446Z,27.73
2019-03-23T12:00:47.971Z,23.37
2019-03-23T12:03:16.516Z,26.20
2019-03-23T12:05:45.050Z,19.10
2019-03-23T12:08:13.596Z,27.33
2019-03-23T12:10:42.128Z,17.77
2019-03-23T12:13:10.751Z,22.00
2019-03-23T12:15:39.283Z,27.50
2019-03-23T12:18:07.835Z,20.70
2019-03-23T12:20:36.363Z,21.03
2019-03-23T12:23:04.911Z,26.97
2019-03-23T12:25:33.512Z,23.67
2019-03-23T12:28:02.059Z,24.67
2019-03-23T12:30:30.590Z,31.30
2019-03-23T12:32:59.067Z,23.70
2019-03-23T12:35:27.596Z,28.33
2019-03-23T12:37:56.145Z,28.30
2019-03-23T12:40:24.683Z,26.70
2019-03-23T12:42:53.165Z,23.00
2019-03-23T12:45:21.691Z,23.80
2019-03-23T12:47:50.151Z,34.33
2019-03-23T12:50:18.626Z,26.33
2019-03-23T12:52:47.189Z,21.90
2019-03-23T12:55:15.717Z,21.70
2019-03-23T12:57:44.254Z,22.37
2019-03-23T13:00:17.075Z,32.73
2019-03-23T13:02:45.672Z,70.13
2019-03-23T13:05:14.297Z,21.47
2019-03-23T13:07:42.821Z,35.07
2019-03-23T13:10:13.114Z,51.63
2019-03-23T13:12:41.717Z,22.87
2019-03-23T13:15:12.102Z,22.77
2019-03-23T13:17:40.698Z,23.17
2019-03-23T13:20:10.086Z,31.60
2019-03-23T13:22:38.642Z,23.23
2019-03-23T13:25:08.820Z,21.93
2019-03-23T13:27:37.618Z,156.10
2019-03-23T13:30:09.363Z,68.07
2019-03-23T13:32:37.903Z,24.53
2019-03-23T13:35:06.495Z,25.47
2019-03-23T13:37:35.052Z,23.83
2019-03-23T13:40:05.635Z,26.77
2019-03-23T13:42:34.238Z,27.50
2019-03-23T13:45:03.080Z,21.50
2019-03-23T13:47:31.611Z,25.30
2019-03-23T13:50:00.107Z,32.33
2019-03-23T13:52:28.755Z,27.80
2019-03-23T13:54:57.304Z,26.00
2019-03-23T13:57:25.843Z,30.80
2019-03-23T13:59:54.390Z,25.63
2019-03-23T14:02:22.846Z,26.93
2019-03-23T14:04:51.380Z,29.60
2019-03-23T14:07:19.926Z,26.10
2019-03-23T14:09:48.460Z,27.13
2019-03-23T14:12:17.009Z,30.17
2019-03-23T14:14:45.549Z,28.87
2019-03-23T14:17:14.108Z,30.57
2019-03-23T14:19:42.639Z,28.00
2019-03-23T14:22:11.190Z,35.37
2019-03-23T14:24:39.730Z,32.40
2019-03-23T14:27:08.256Z,28.90
2019-03-23T14:29:36.802Z,30.73
2019-03-23T14:32:05.328Z,33.37
2019-03-23T14:34:33.879Z,28.33
2019-03-23T14:37:02.417Z,29.10
2019-03-23T14:39:31.227Z,28.33
2019-03-23T14:42:04.817Z,27.40
2019-03-23T14:44:29.971Z,36.23
2019-03-23T14:46:58.504Z,27.57
2019-03-23T14:49:27.035Z,25.83
2019-03-23T14:51:55.587Z,24.50
2019-03-23T14:54:24.142Z,28.87
2019-03-23T14:56:52.690Z,32.57
2019-03-23T14:59:21.218Z,26.00
2019-03-23T15:01:49.841Z,22.73
2019-03-23T15:04:18.419Z,28.77
2019-03-23T15:06:46.970Z,26.97
2019-03-23T15:09:15.500Z,28.30
2019-03-23T15:11:44.065Z,28.23
2019-03-23T15:14:12.654Z,27.13
2019-03-23T15:16:41.204Z,30.57
2019-03-23T15:19:09.739Z,31.40
2019-03-23T15:21:38.286Z,28.70
2019-03-23T15:24:06.920Z,28.33
2019-03-23T15:26:35.473Z,27.83
2019-03-23T15:29:05.444Z,27.70
2019-03-23T15:31:34.014Z,33.37
2019-03-23T15:34:02.618Z,30.80
2019-03-23T15:36:31.326Z,25.40
2019-03-23T15:38:59.855Z,27.30
2019-03-23T15:41:28.399Z,29.20
2019-03-23T15:43:56.932Z,33.50
2019-03-23T15:46:25.535Z,33.63
2019-03-23T15:48:54.087Z,26.40
2019-03-23T15:51:22.619Z,30.70
2019-03-23T15:53:51.094Z,33.10
2019-03-23T15:56:19.561Z,32.30
2019-03-23T15:58:48.112Z,26.97
2019-03-23T16:01:16.658Z,25.63
2019-03-23T16:03:45.270Z,32.50
2019-03-23T16:06:13.874Z,26.23
2019-03-23T16:08:42.423Z,22.30
2019-03-23T16:11:10.954Z,31.97
2019-03-23T16:13:39.459Z,26.30
2019-03-23T16:16:07.986Z,29.03
2019-03-23T16:18:36.464Z,24.70
2019-03-23T16:21:05.131Z,30.83
2019-03-23T16:23:33.686Z,29.87
2019-03-23T16:26:02.776Z,28.03
2019-03-23T16:28:31.334Z,28.40
2019-03-23T16:30:59.884Z,29.00
2019-03-23T16:33:28.411Z,33.60
2019-03-23T16:35:57.037Z,27.93
2019-03-23T16:38:25.566Z,33.33
2019-03-23T16:40:54.044Z,32.70
2019-03-23T16:43:22.584Z,35.73
2019-03-23T16:45:51.131Z,28.53
2019-03-23T16:48:19.666Z,27.37
2019-03-23T16:50:49.556Z,25.30
2019-03-23T16:53:18.766Z,27.40
2019-03-23T16:55:47.747Z,25.53
2019-03-23T16:58:17.129Z,28.00
2019-03-23T17:00:45.587Z,28.00
2019-03-23T17:03:14.135Z,45.23
2019-03-23T17:05:43.487Z,30.67
2019-03-23T17:08:12.039Z,30.63
2019-03-23T17:10:40.575Z,34.80
2019-03-23T17:13:09.161Z,32.10
2019-03-23T17:15:37.686Z,32.70
2019-03-23T17:18:06.415Z,29.10
2019-03-23T17:20:34.962Z,32.90
2019-03-23T17:23:03.501Z,29.50
2019-03-23T17:25:32.114Z,28.17
2019-03-23T17:28:00.714Z,29.70
2019-03-23T17:30:29.259Z,25.77
2019-03-23T17:32:57.792Z,27.10
2019-03-23T17:35:26.343Z,27.00
2019-03-23T17:37:54.874Z,27.20
2019-03-23T17:40:23.410Z,24.97
2019-03-23T17:42:51.973Z,27.20
2019-03-23T17:45:20.501Z,25.47
2019-03-23T17:47:48.987Z,34.13
2019-03-23T17:50:17.595Z,23.50
2019-03-23T17:52:46.384Z,22.67
2019-03-23T17:55:14.919Z,22.60
2019-03-23T17:57:43.475Z,30.40
2019-03-23T18:00:12.642Z,22.33
2019-03-23T18:02:41.195Z,20.90
2019-03-23T18:05:12.305Z,21.97
2019-03-23T18:07:40.983Z,24.93
2019-03-23T18:10:09.953Z,28.00
2019-03-23T18:12:38.479Z,24.73
2019-03-23T18:15:08.468Z,27.13
2019-03-23T18:17:37.070Z,26.40
2019-03-23T18:20:06.560Z,30.83
2019-03-23T18:22:35.099Z,26.57
2019-03-23T18:25:04.898Z,34.00
2019-03-23T18:27:33.422Z,34.87
2019-03-23T18:30:01.883Z,20.60
2019-03-23T18:32:30.449Z,31.70
2019-03-23T18:34:59.039Z,26.23
2019-03-23T18:37:27.515Z,26.40
2019-03-23T18:39:56.489Z,24.60
2019-03-23T18:42:25.037Z,32.03
2019-03-23T18:44:53.567Z,22.60
2019-03-23T18:47:22.121Z,28.03
2019-03-23T18:49:50.658Z,27.23
2019-03-23T18:52:19.287Z,31.73
2019-03-23T18:54:47.814Z,26.80
2019-03-23T18:57:16.353Z,27.60
2019-03-23T18:59:44.907Z,22.47
2019-03-23T19:02:13.442Z,27.57
2019-03-23T19:04:42.003Z,31.43
2019-03-23T19:07:10.546Z,22.10
2019-03-23T19:09:39.110Z,31.53
2019-03-23T19:12:07.636Z,39.83
2019-03-23T19:14:36.183Z,25.10
2019-03-23T19:17:04.783Z,37.13
2019-03-23T19:19:33.315Z,27.67
2019-03-23T19:22:01.871Z,24.77
2019-03-23T19:24:30.412Z,26.27
2019-03-23T19:26:59.055Z,29.40
2019-03-23T19:29:27.739Z,34.03
2019-03-23T19:31:57.303Z,34.03
2019-03-23T19:34:26.646Z,41.80
2019-03-23T19:36:56.096Z,87.57
2019-03-23T19:39:25.503Z,258.97
2019-03-23T19:41:55.032Z,198.50
2019-03-23T19:44:24.336Z,141.67
2019-03-23T19:46:53.686Z,108.30
2019-03-23T19:49:23.053Z,133.03
2019-03-23T19:51:52.322Z,91.73
2019-03-23T19:54:21.792Z,86.73
2019-03-23T19:56:51.684Z,97.27
2019-03-23T19:59:21.209Z,90.87
2019-03-23T20:01:51.817Z,93.10
2019-03-23T20:04:21.216Z,116.07
2019-03-23T20:06:51.107Z,90.13
2019-03-23T20:09:20.505Z,92.90
2019-03-23T20:11:49.798Z,80.00
2019-03-23T20:14:18.816Z,89.13
2019-03-23T20:16:48.233Z,80.90
2019-03-23T20:19:17.788Z,80.20
2019-03-23T20:21:47.072Z,89.47
2019-03-23T20:24:16.248Z,80.80
2019-03-23T20:26:45.532Z,77.80
2019-03-23T20:29:14.844Z,68.30
2019-03-23T20:31:45.560Z,77.47
2019-03-23T20:34:15.001Z,74.97
2019-03-23T20:36:44.351Z,67.90
2019-03-23T20:39:15.270Z,62.37
2019-03-23T20:41:44.727Z,62.77
2019-03-23T20:44:14.102Z,58.23
2019-03-23T20:46:44.693Z,49.85
2019-03-23T20:49:15.942Z,59.23
2019-03-23T20:51:45.558Z,59.57
2019-03-23T20:54:14.187Z,53.60
2019-03-23T20:56:42.792Z,63.03
2019-03-23T20:59:11.420Z,52.17
2019-03-23T21:01:39.955Z,53.55
2019-03-23T21:04:08.820Z,55.78
2019-03-23T21:06:37.493Z,57.75
2019-03-23T21:09:07.467Z,61.05
2019-03-23T21:11:36.463Z,54.15
2019-03-23T21:14:05.145Z,54.27
2019-03-23T21:16:33.691Z,55.63
2019-03-23T21:19:02.228Z,49.80
2019-03-23T21:21:30.860Z,58.40
2019-03-23T21:23:59.391Z,50.73
2019-03-23T21:26:27.957Z,45.38
2019-03-23T21:28:56.493Z,54.23
2019-03-23T21:31:25.021Z,55.55
2019-03-23T21:33:53.590Z,45.08
2019-03-23T21:36:22.115Z,44.00
2019-03-23T21:38:50.662Z,38.98
2019-03-23T21:41:19.195Z,38.73
2019-03-23T21:43:47.751Z,32.67
2019-03-23T21:46:16.273Z,36.65
2019-03-23T21:48:44.763Z,37.65
2019-03-23T21:51:13.288Z,33.23
2019-03-23T21:53:41.746Z,31.75
2019-03-23T21:56:10.307Z,33.28
2019-03-23T21:58:38.840Z,31.57
2019-03-23T22:01:07.393Z,40.43
2019-03-23T22:03:36.420Z,52.35
2019-03-23T22:06:05.010Z,39.78
2019-03-23T22:08:33.560Z,44.13
2019-03-23T22:11:02.092Z,43.75
2019-03-23T22:13:30.643Z,33.73
2019-03-23T22:15:59.167Z,45.00
2019-03-23T22:18:27.718Z,47.70
2019-03-23T22:20:56.179Z,39.80
2019-03-23T22:23:24.710Z,38.28
2019-03-23T22:25:53.259Z,43.17
2019-03-23T22:28:21.803Z,38.98
2019-03-23T22:30:50.255Z,38.58
2019-03-23T22:33:18.798Z,42.05
2019-03-23T22:35:47.329Z,36.42
2019-03-23T22:38:15.890Z,36.53
2019-03-23T22:40:44.483Z,31.70
2019-03-23T22:43:13.026Z,32.10
2019-03-23T22:45:41.483Z,29.95
2019-03-23T22:48:09.937Z,37.03
2019-03-23T22:50:38.482Z,32.63
2019-03-23T22:53:06.945Z,34.85
2019-03-23T22:55:35.491Z,35.92
2019-03-23T22:58:04.641Z,35.73
2019-03-23T23:00:43.268Z,35.65
2019-03-23T23:03:12.775Z,32.73
2019-03-23T23:05:41.541Z,31.82
2019-03-23T23:08:10.151Z,37.50
2019-03-23T23:10:38.810Z,37.85
2019-03-23T23:13:07.277Z,35.03
2019-03-23T23:15:35.867Z,35.10
2019-03-23T23:18:04.563Z,45.63
2019-03-23T23:20:33.090Z,42.17
2019-03-23T23:23:01.564Z,52.67
2019-03-23T23:25:30.093Z,37.70
2019-03-23T23:27:58.647Z,43.30
2019-03-23T23:30:27.179Z,32.98
2019-03-23T23:32:55.765Z,35.30
2019-03-23T23:35:24.314Z,29.48
2019-03-23T23:37:52.838Z,43.80
2019-03-23T23:40:21.306Z,41.35
2019-03-23T23:42:49.834Z,37.83
2019-03-23T23:45:18.385Z,32.20
2019-03-23T23:47:46.904Z,41.28
2019-03-23T23:50:15.523Z,31.30
2019-03-23T23:52:44.049Z,38.80
2019-03-23T23:55:12.582Z,33.08
2019-03-23T23:57:41.039Z,37.55
